Wrigley, Canada
Current Conditions -  °F | °C
As of 3:22 PM on Tuesday 21 Oct 2014 (Local Time) from CYFS Reporting Station
Light Snow Light Snow  
Wind Chill: 23°   Ceiling: 600
Heat Index: 32°   Visibility: 6mi
Dew Point: 28°   Wind: 12mph
Humidity: 87%   Direction: 330°NNW
Pressure: 29.54"   Gusts: NA
Location:  63.27°N, 123.6°W
Report Text: CYFS 212122Z 33010KT 6SM -SG OVC006 M00/M02 A2954 RMK ST8 SLP013
Loading
Personal Weather Stations






























Interactive Weather Map
Tropical Storm Tracking
New forecast layout! Learn more

10-Day Weather Forecast

Advertisements
Track Severe Weather on mobile